createdAt,value
2022-12-24T00:00:05.088Z,72610.38
2022-12-24T00:00:39.860Z,72602.38
2022-12-24T00:01:14.758Z,72608.38
2022-12-24T00:01:46.992Z,72606.38
2022-12-24T00:02:19.417Z,72610.38
2022-12-24T00:02:54.661Z,72610.38
2022-12-24T00:03:27.176Z,72608.38
2022-12-24T00:03:59.525Z,72612.38
2022-12-24T00:04:34.503Z,72614.38
2022-12-24T00:05:07.414Z,72618.34
2022-12-24T00:05:39.668Z,72618.34
2022-12-24T00:06:19.974Z,72618.34
2022-12-24T00:06:52.206Z,72614.38
2022-12-24T00:07:24.439Z,72614.38
2022-12-24T00:07:59.296Z,72608.38
2022-12-24T00:08:31.518Z,72602.38
2022-12-24T00:09:04.204Z,72602.38
2022-12-24T00:09:39.107Z,72596.41
2022-12-24T00:10:11.861Z,72602.38
2022-12-24T00:10:44.446Z,72610.38
2022-12-24T00:11:19.405Z,72608.38
2022-12-24T00:11:51.663Z,72610.38
2022-12-24T00:12:23.954Z,72602.38
2022-12-24T00:12:58.839Z,72610.38
2022-12-24T00:13:31.234Z,72612.38
2022-12-24T00:14:06.075Z,72602.38
2022-12-24T00:14:38.329Z,72608.38
2022-12-24T00:15:13.431Z,72614.38
2022-12-24T00:15:48.312Z,72606.38
2022-12-24T00:16:20.596Z,72608.38
2022-12-24T00:16:52.957Z,72608.38
2022-12-24T00:17:27.884Z,72606.38
2022-12-24T00:18:00.133Z,72610.38
2022-12-24T00:18:32.674Z,72610.38
2022-12-24T00:19:07.838Z,72610.38
2022-12-24T00:19:40.076Z,72606.38
2022-12-24T00:20:12.746Z,72612.38
2022-12-24T00:20:49.944Z,72614.38
2022-12-24T00:21:24.867Z,72606.38
2022-12-24T00:21:57.232Z,72610.38
2022-12-24T00:22:32.079Z,72622.34
2022-12-24T00:23:04.385Z,72622.34
2022-12-24T00:23:36.659Z,72618.34
2022-12-24T00:24:11.600Z,72622.34
2022-12-24T00:24:43.870Z,72630.34
2022-12-24T00:25:16.166Z,72638.31
2022-12-24T00:25:48.488Z,72634.31
2022-12-24T00:26:23.312Z,72630.34
2022-12-24T00:26:55.792Z,72638.31
2022-12-24T00:27:28.121Z,72638.31
2022-12-24T00:28:02.969Z,72634.31
2022-12-24T00:28:35.261Z,72636.31
2022-12-24T00:29:07.492Z,72642.31
2022-12-24T00:29:42.400Z,72634.31
2022-12-24T00:30:17.426Z,72638.31
2022-12-24T00:30:49.847Z,72638.31
2022-12-24T00:31:24.797Z,72640.31
2022-12-24T00:31:57.057Z,72644.31
2022-12-24T00:32:29.337Z,72646.31
2022-12-24T00:33:04.172Z,72646.31
2022-12-24T00:33:36.395Z,72650.28
2022-12-24T00:34:08.972Z,72654.28
2022-12-24T00:34:43.891Z,72648.28
2022-12-24T00:35:16.211Z,72648.28
2022-12-24T00:35:51.453Z,72650.28
2022-12-24T00:36:26.343Z,72646.31
2022-12-24T00:36:58.558Z,72638.31
2022-12-24T00:37:30.852Z,72646.31
2022-12-24T00:38:04.008Z,72638.31
2022-12-24T00:38:38.909Z,72640.31
2022-12-24T00:39:11.142Z,72634.31
2022-12-24T00:39:43.423Z,72638.31
2022-12-24T00:40:18.530Z,72638.31
2022-12-24T00:40:50.785Z,72644.31
2022-12-24T00:41:26.508Z,72646.31
2022-12-24T00:42:01.473Z,72642.31
2022-12-24T00:42:33.751Z,72650.28
2022-12-24T00:43:06.276Z,72650.28
2022-12-24T00:43:41.175Z,72646.31
2022-12-24T00:44:13.420Z,72648.28
2022-12-24T00:44:45.699Z,72646.31
2022-12-24T00:45:23.187Z,72642.31
2022-12-24T00:45:55.799Z,72646.31
2022-12-24T00:46:29.968Z,72646.31
2022-12-24T00:47:10.068Z,72634.31
2022-12-24T00:47:44.304Z,72638.31
2022-12-24T00:48:16.558Z,72644.31
2022-12-24T00:48:51.473Z,72650.28
2022-12-24T00:49:23.729Z,72654.28
2022-12-24T00:50:47.402Z,72662.28
2022-12-24T00:51:20.467Z,72662.28
2022-12-24T00:51:52.833Z,72660.28
2022-12-24T00:52:27.695Z,72664.25
2022-12-24T00:53:00.033Z,72658.28
2022-12-24T00:53:32.288Z,72662.28
2022-12-24T00:54:07.761Z,72666.25
2022-12-24T00:54:39.995Z,72666.25
2022-12-24T00:55:12.228Z,72666.25
2022-12-24T00:55:44.486Z,72670.25
2022-12-24T00:56:19.689Z,72670.25
2022-12-24T00:56:51.932Z,72670.25
2022-12-24T00:57:24.195Z,72670.25
2022-12-24T00:57:59.016Z,72670.25
2022-12-24T00:58:31.267Z,72668.25
2022-12-24T00:59:03.520Z,72670.25
2022-12-24T00:59:35.741Z,72666.25
2022-12-24T01:00:12.391Z,72670.25
2022-12-24T01:00:45.145Z,72678.22
2022-12-24T01:01:18.267Z,72674.25
2022-12-24T01:01:53.338Z,72676.25
2022-12-24T01:02:25.815Z,72666.25
2022-12-24T01:02:58.273Z,72664.25
2022-12-24T01:03:39.598Z,72666.25
2022-12-24T01:04:26.896Z,72658.28
2022-12-24T01:05:11.404Z,72666.25
2022-12-24T01:05:46.428Z,72670.25
2022-12-24T01:06:20.687Z,72668.25
2022-12-24T01:06:52.939Z,72668.25
2022-12-24T01:07:27.778Z,72666.25
2022-12-24T01:08:00.008Z,72668.25
2022-12-24T01:08:32.655Z,72666.25
2022-12-24T01:09:04.986Z,72660.28
2022-12-24T01:09:40.052Z,72658.28
2022-12-24T01:10:13.660Z,72660.28
2022-12-24T01:10:45.912Z,72670.25
2022-12-24T01:11:21.417Z,72658.28
2022-12-24T01:11:53.644Z,72668.25
2022-12-24T01:12:26.212Z,72666.25
2022-12-24T01:13:04.151Z,72666.25
2022-12-24T01:13:36.541Z,72670.25
2022-12-24T01:14:08.845Z,72674.25
2022-12-24T01:14:41.074Z,72674.25
2022-12-24T01:15:18.023Z,72670.25
2022-12-24T01:15:50.266Z,72674.25
2022-12-24T01:16:22.709Z,72666.25
2022-12-24T01:16:55.040Z,72670.25
2022-12-24T01:17:29.887Z,72678.22
2022-12-24T01:18:02.169Z,72670.25
2022-12-24T01:18:34.413Z,72678.22
2022-12-24T01:19:06.664Z,72680.22
2022-12-24T01:19:41.515Z,72674.25
2022-12-24T01:20:16.222Z,72674.25
2022-12-24T01:21:01.719Z,72670.25
2022-12-24T01:21:33.980Z,72670.25
2022-12-24T01:22:06.227Z,72678.22
2022-12-24T01:22:41.045Z,72670.25
2022-12-24T01:23:13.362Z,72678.22
2022-12-24T01:23:45.639Z,72680.22
2022-12-24T01:24:20.459Z,72668.25
2022-12-24T01:24:52.795Z,72682.22
2022-12-24T01:25:25.079Z,72678.22
2022-12-24T01:26:03.348Z,72674.25
2022-12-24T01:26:35.592Z,72676.25
2022-12-24T01:27:07.887Z,72678.22
2022-12-24T01:27:42.737Z,72678.22
2022-12-24T01:28:14.986Z,72682.22
2022-12-24T01:28:47.254Z,72686.22
2022-12-24T01:29:22.447Z,72682.22
2022-12-24T01:29:54.743Z,72684.22
2022-12-24T01:30:29.597Z,72686.22
2022-12-24T01:31:01.913Z,72686.22
2022-12-24T01:31:34.353Z,72686.22
2022-12-24T01:32:06.692Z,72692.22
2022-12-24T01:32:41.522Z,72686.22
2022-12-24T01:33:13.789Z,72692.22
2022-12-24T01:33:47.015Z,72698.19
2022-12-24T01:34:21.871Z,72694.19
2022-12-24T01:34:54.133Z,72690.22
2022-12-24T01:35:26.382Z,72690.22
2022-12-24T01:36:05.838Z,72694.19
2022-12-24T01:36:38.082Z,72706.19
2022-12-24T01:37:10.317Z,72702.19
2022-12-24T01:37:45.343Z,72706.19
2022-12-24T01:38:17.578Z,72702.19
2022-12-24T01:38:49.844Z,72712.16
2022-12-24T01:39:24.797Z,72704.19
2022-12-24T01:40:17.021Z,72710.16
2022-12-24T01:41:04.342Z,72714.16
2022-12-24T01:41:51.638Z,72714.16
2022-12-24T01:42:39.349Z,72714.16
2022-12-24T01:43:25.047Z,72718.16
2022-12-24T01:43:57.313Z,72710.16
2022-12-24T01:44:36.860Z,72722.16
2022-12-24T01:45:41.629Z,72718.16
2022-12-24T01:46:20.011Z,72720.16
2022-12-24T01:46:54.529Z,72714.16
2022-12-24T01:47:28.638Z,72718.16
2022-12-24T01:48:00.886Z,72718.16
2022-12-24T01:48:39.196Z,72714.16
2022-12-24T01:49:12.551Z,72710.16
2022-12-24T01:49:47.312Z,72718.16
2022-12-24T01:50:22.143Z,72722.16
2022-12-24T01:50:57.958Z,72716.16
2022-12-24T01:51:36.052Z,72716.16
2022-12-24T01:52:12.908Z,72718.16
2022-12-24T01:52:45.168Z,72726.13
2022-12-24T01:53:17.928Z,72722.16
2022-12-24T01:53:53.180Z,72724.13
2022-12-24T01:54:31.939Z,72722.16
2022-12-24T01:55:06.365Z,72726.13
2022-12-24T01:55:38.629Z,72726.13
2022-12-24T01:56:12.328Z,72730.13
2022-12-24T01:56:51.494Z,72734.13
2022-12-24T01:57:27.706Z,72728.13
2022-12-24T01:58:00.598Z,72730.13
2022-12-24T01:58:35.682Z,72730.13
2022-12-24T01:59:14.963Z,72734.13
2022-12-24T01:59:50.359Z,72738.13
2022-12-24T02:00:25.392Z,72742.09
2022-12-24T02:00:58.140Z,72742.09
2022-12-24T02:01:30.826Z,72750.09
2022-12-24T02:02:06.012Z,72748.09
2022-12-24T02:02:39.672Z,72752.09
2022-12-24T02:03:12.161Z,72750.09
2022-12-24T02:03:47.298Z,72754.09
2022-12-24T02:04:26.236Z,72750.09
2022-12-24T02:05:03.553Z,72750.09
2022-12-24T02:05:41.215Z,72750.09
2022-12-24T02:06:15.753Z,72752.09
2022-12-24T02:06:50.708Z,72750.09
2022-12-24T02:07:25.880Z,72752.09
2022-12-24T02:07:58.753Z,72746.09
2022-12-24T02:08:40.174Z,72746.09
2022-12-24T02:09:15.424Z,72750.09
2022-12-24T02:09:47.892Z,72744.09
2022-12-24T02:10:20.231Z,72746.09
2022-12-24T02:10:52.460Z,72746.09
2022-12-24T02:11:27.269Z,72746.09
2022-12-24T02:11:59.891Z,72738.13
2022-12-24T02:12:34.817Z,72740.09
2022-12-24T02:13:07.175Z,72742.09
2022-12-24T02:13:42.183Z,72744.09
2022-12-24T02:14:15.891Z,72740.09
2022-12-24T02:14:48.212Z,72748.09
2022-12-24T02:15:24.369Z,72746.09
2022-12-24T02:16:02.985Z,72748.09
2022-12-24T02:16:41.485Z,72752.09
2022-12-24T02:17:21.679Z,72754.09
2022-12-24T02:17:59.751Z,72752.09
2022-12-24T02:18:38.049Z,72758.06
2022-12-24T02:19:27.572Z,72758.06
2022-12-24T02:20:27.532Z,72760.06
2022-12-24T02:21:27.219Z,72758.06
2022-12-24T02:22:03.342Z,72754.09
2022-12-24T02:22:47.676Z,72762.06
2022-12-24T02:23:56.915Z,72762.06
2022-12-24T02:24:50.553Z,72768.06
2022-12-24T02:25:43.957Z,72770.06
2022-12-24T02:26:28.237Z,72766.06
2022-12-24T02:27:14.087Z,72762.06
2022-12-24T02:27:57.723Z,72768.06
2022-12-24T02:28:44.314Z,72770.06
2022-12-24T02:29:33.128Z,72766.06
2022-12-24T02:30:32.273Z,72762.06
2022-12-24T02:31:08.370Z,72758.06
2022-12-24T02:31:42.829Z,72762.06
2022-12-24T02:32:17.684Z,72764.06
2022-12-24T02:33:09.967Z,72758.06
2022-12-24T02:33:45.956Z,72762.06
2022-12-24T02:34:22.787Z,72762.06
2022-12-24T02:35:01.211Z,72766.06
2022-12-24T02:35:38.664Z,72758.06
2022-12-24T02:36:14.389Z,72758.06
2022-12-24T02:36:52.923Z,72762.06
2022-12-24T02:37:27.424Z,72758.06
2022-12-24T02:38:03.679Z,72764.06
2022-12-24T02:38:44.488Z,72762.06
2022-12-24T02:39:23.146Z,72768.06
2022-12-24T02:39:58.744Z,72768.06
2022-12-24T02:40:39.501Z,72764.06
2022-12-24T02:41:16.102Z,72764.06
2022-12-24T02:42:06.112Z,72766.06
2022-12-24T02:42:44.405Z,72766.06
2022-12-24T02:43:20.114Z,72758.06
2022-12-24T02:43:56.648Z,72766.06
2022-12-24T02:44:31.081Z,72760.06
2022-12-24T02:45:06.036Z,72758.06
2022-12-24T02:45:43.965Z,72762.06
2022-12-24T02:46:18.782Z,72758.06
2022-12-24T02:46:51.686Z,72766.06
2022-12-24T02:47:31.007Z,72762.06
2022-12-24T02:48:06.564Z,72770.06
2022-12-24T02:48:43.766Z,72756.06
2022-12-24T02:49:15.984Z,72762.06
2022-12-24T02:49:48.885Z,72760.06
2022-12-24T02:50:23.754Z,72758.06
2022-12-24T02:51:02.604Z,72756.06
2022-12-24T02:51:35.121Z,72760.06
2022-12-24T02:52:07.363Z,72752.09
2022-12-24T02:52:43.699Z,72758.06
2022-12-24T02:53:15.985Z,72758.06
2022-12-24T02:53:50.810Z,72758.06
2022-12-24T02:54:23.223Z,72766.06
2022-12-24T02:54:55.690Z,72758.06
2022-12-24T02:55:37.159Z,72762.06
2022-12-24T02:56:20.358Z,72762.06
2022-12-24T02:57:09.642Z,72770.06
2022-12-24T02:58:01.978Z,72770.06
2022-12-24T02:58:44.562Z,72774.03
2022-12-24T02:59:32.830Z,72778.03
2022-12-24T03:00:11.538Z,72782.03
2022-12-24T03:00:52.164Z,72776.03
2022-12-24T03:01:32.085Z,72778.03
2022-12-24T03:02:14.456Z,72778.03
2022-12-24T03:03:11.253Z,72778.03
2022-12-24T03:03:52.886Z,72786.00
2022-12-24T03:04:39.775Z,72778.03
2022-12-24T03:05:23.807Z,72790.00
2022-12-24T03:06:00.332Z,72790.00
2022-12-24T03:06:40.335Z,72794.00
2022-12-24T03:07:21.345Z,72794.00
2022-12-24T03:07:59.445Z,72792.00
2022-12-24T03:08:37.195Z,72790.00
2022-12-24T03:09:17.697Z,72794.00
2022-12-24T03:09:59.271Z,72796.00
2022-12-24T03:10:36.714Z,72790.00
2022-12-24T03:11:13.521Z,72790.00
2022-12-24T03:11:51.223Z,72792.00
2022-12-24T03:12:28.409Z,72794.00
2022-12-24T03:13:05.863Z,72786.00
2022-12-24T03:13:38.503Z,72790.00
2022-12-24T03:14:12.568Z,72790.00
2022-12-24T03:14:47.689Z,72796.00
2022-12-24T03:15:23.573Z,72794.00
2022-12-24T03:15:58.457Z,72801.97
2022-12-24T03:16:33.692Z,72796.00
2022-12-24T03:17:06.137Z,72794.00
2022-12-24T03:17:39.908Z,72794.00
2022-12-24T03:18:13.762Z,72801.97
2022-12-24T03:18:50.972Z,72798.00
2022-12-24T03:19:23.418Z,72798.00
2022-12-24T03:19:56.309Z,72801.97
2022-12-24T03:20:35.534Z,72801.97
2022-12-24T03:21:10.472Z,72809.97
2022-12-24T03:21:43.113Z,72803.97
2022-12-24T03:22:19.338Z,72803.97
2022-12-24T03:22:51.712Z,72809.97
2022-12-24T03:23:24.089Z,72801.97
2022-12-24T03:23:59.629Z,72811.97
2022-12-24T03:24:31.915Z,72803.97
2022-12-24T03:25:05.237Z,72817.94
2022-12-24T03:25:43.470Z,72815.97
2022-12-24T03:26:17.851Z,72825.94
2022-12-24T03:26:50.303Z,72815.97
2022-12-24T03:27:25.871Z,72817.94
2022-12-24T03:27:58.230Z,72819.94
2022-12-24T03:28:30.911Z,72815.97
2022-12-24T03:29:07.913Z,72819.94
2022-12-24T03:29:40.467Z,72819.94
2022-12-24T03:30:15.640Z,72813.97
2022-12-24T03:30:51.564Z,72819.94
2022-12-24T03:31:26.480Z,72809.97
2022-12-24T03:32:01.336Z,72819.94
2022-12-24T03:32:36.248Z,72819.94
2022-12-24T03:33:08.838Z,72821.94
2022-12-24T03:33:41.479Z,72815.97
2022-12-24T03:34:17.439Z,72825.94
2022-12-24T03:34:49.670Z,72817.94
2022-12-24T03:35:21.951Z,72817.94
2022-12-24T03:35:54.298Z,72823.94
2022-12-24T03:36:30.870Z,72815.97
2022-12-24T03:37:03.289Z,72811.97
2022-12-24T03:37:36.313Z,72817.94
2022-12-24T03:38:11.215Z,72817.94
2022-12-24T03:38:43.542Z,72821.94
2022-12-24T03:39:15.941Z,72821.94
2022-12-24T03:39:50.767Z,72825.94
2022-12-24T03:40:23.158Z,72821.94
2022-12-24T03:40:55.410Z,72823.94
2022-12-24T03:41:27.646Z,72827.94
2022-12-24T03:42:02.493Z,72821.94
2022-12-24T03:42:34.801Z,72825.94
2022-12-24T03:43:07.044Z,72827.94
2022-12-24T03:43:39.268Z,72835.91
2022-12-24T03:44:14.123Z,72833.91
2022-12-24T03:44:46.393Z,72833.91
2022-12-24T03:45:19.008Z,72833.91
2022-12-24T03:45:53.926Z,72837.91
2022-12-24T03:46:28.912Z,72841.91
2022-12-24T03:47:01.171Z,72841.91
2022-12-24T03:47:36.011Z,72843.91
2022-12-24T03:48:08.250Z,72841.91
2022-12-24T03:48:40.517Z,72845.91
2022-12-24T03:49:15.414Z,72843.91
2022-12-24T03:49:47.651Z,72841.91
2022-12-24T03:50:19.931Z,72845.91
2022-12-24T03:50:52.159Z,72839.91
2022-12-24T03:51:28.544Z,72839.91
2022-12-24T03:52:00.812Z,72841.91
2022-12-24T03:52:33.040Z,72837.91
2022-12-24T03:53:05.287Z,72837.91
2022-12-24T03:53:40.099Z,72841.91
2022-12-24T03:54:12.490Z,72841.91
2022-12-24T03:54:44.744Z,72841.91
2022-12-24T03:55:19.731Z,72839.91
2022-12-24T03:55:51.955Z,72849.88
2022-12-24T03:56:24.338Z,72841.91
2022-12-24T03:56:56.656Z,72853.88
2022-12-24T03:57:31.475Z,72851.88
2022-12-24T03:58:03.707Z,72861.88
2022-12-24T03:58:35.932Z,72857.88
2022-12-24T03:59:10.776Z,72865.84
2022-12-24T03:59:43.001Z,72861.88
2022-12-24T04:00:16.188Z,72869.84
2022-12-24T04:00:51.104Z,72861.88
2022-12-24T04:01:23.417Z,72869.84
2022-12-24T04:01:58.708Z,72865.84
2022-12-24T04:02:33.782Z,72865.84
2022-12-24T04:03:06.277Z,72869.84
2022-12-24T04:03:38.643Z,72873.84
2022-12-24T04:04:13.491Z,72865.84
2022-12-24T04:04:45.756Z,72871.84
2022-12-24T04:05:19.833Z,72865.84
2022-12-24T04:06:04.179Z,72865.84
2022-12-24T04:06:36.428Z,72865.84
2022-12-24T04:07:08.794Z,72861.88
2022-12-24T04:07:43.653Z,72857.88
2022-12-24T04:08:15.927Z,72861.88
2022-12-24T04:08:48.180Z,72869.84
2022-12-24T04:09:22.998Z,72865.84
2022-12-24T04:09:55.270Z,72867.84
2022-12-24T04:10:27.506Z,72865.84
2022-12-24T04:11:07.704Z,72869.84
2022-12-24T04:11:41.742Z,72865.84
2022-12-24T04:12:14.029Z,72873.84
2022-12-24T04:12:48.859Z,72865.84
2022-12-24T04:13:21.086Z,72873.84
2022-12-24T04:13:53.385Z,72859.88
2022-12-24T04:14:28.379Z,72869.84
2022-12-24T04:15:00.603Z,72873.84
2022-12-24T04:15:32.837Z,72865.84
2022-12-24T04:16:10.739Z,72875.84
2022-12-24T04:16:43.219Z,72871.84
2022-12-24T04:17:18.171Z,72881.81
2022-12-24T04:17:53.034Z,72877.84
2022-12-24T04:18:25.392Z,72879.81
2022-12-24T04:18:57.617Z,72881.81
2022-12-24T04:19:32.625Z,72877.84
2022-12-24T04:20:06.110Z,72881.81
2022-12-24T04:20:38.351Z,72881.81
2022-12-24T04:21:13.839Z,72877.84
2022-12-24T04:21:46.065Z,72881.81
2022-12-24T04:22:18.360Z,72879.81
2022-12-24T04:22:53.184Z,72873.84
2022-12-24T04:23:25.601Z,72877.84
2022-12-24T04:23:57.977Z,72873.84
2022-12-24T04:24:32.879Z,72877.84
2022-12-24T04:25:05.863Z,72873.84
2022-12-24T04:25:38.104Z,72877.84
2022-12-24T04:26:15.076Z,72877.84
2022-12-24T04:26:47.353Z,72877.84
2022-12-24T04:27:19.621Z,72883.81
2022-12-24T04:27:54.458Z,72877.84
2022-12-24T04:28:26.695Z,72887.81
2022-12-24T04:28:58.963Z,72881.81
2022-12-24T04:29:31.265Z,72887.81
2022-12-24T04:30:06.657Z,72887.81
2022-12-24T04:30:39.079Z,72893.81
2022-12-24T04:31:14.091Z,72891.81
2022-12-24T04:31:46.396Z,72893.81
2022-12-24T04:32:23.869Z,72895.78
2022-12-24T04:32:56.173Z,72895.78
2022-12-24T04:33:28.852Z,72893.81
2022-12-24T04:34:03.692Z,72897.78
2022-12-24T04:34:36.044Z,72903.78
2022-12-24T04:35:09.362Z,72901.78
2022-12-24T04:35:42.052Z,72907.78
2022-12-24T04:36:18.313Z,72903.78
2022-12-24T04:36:50.614Z,72905.78
2022-12-24T04:37:25.503Z,72905.78
2022-12-24T04:37:57.737Z,72909.78
2022-12-24T04:38:30.046Z,72903.78
2022-12-24T04:39:04.898Z,72905.78
2022-12-24T04:39:37.215Z,72911.75
2022-12-24T04:40:10.516Z,72909.78
2022-12-24T04:40:45.368Z,72907.78
2022-12-24T04:41:23.212Z,72909.78
2022-12-24T04:41:58.451Z,72905.78
2022-12-24T04:42:30.746Z,72905.78
2022-12-24T04:43:03.153Z,72905.78
2022-12-24T04:43:37.992Z,72901.78
2022-12-24T04:44:10.500Z,72905.78
2022-12-24T04:44:42.726Z,72907.78
2022-12-24T04:45:17.630Z,72905.78
2022-12-24T04:45:49.935Z,72901.78
2022-12-24T04:46:24.355Z,72909.78
2022-12-24T04:46:59.258Z,72911.75
2022-12-24T04:47:34.074Z,72909.78
2022-12-24T04:48:06.334Z,72913.75
2022-12-24T04:48:41.264Z,72913.75
2022-12-24T04:49:13.540Z,72909.78
2022-12-24T04:49:45.759Z,72903.78
2022-12-24T04:50:20.895Z,72905.78
2022-12-24T04:50:53.124Z,72905.78
2022-12-24T04:51:26.313Z,72901.78
2022-12-24T04:52:01.139Z,72903.78
2022-12-24T04:52:34.328Z,72909.78
2022-12-24T04:53:06.543Z,72903.78
2022-12-24T04:53:39.887Z,72905.78
2022-12-24T04:54:14.716Z,72909.78
2022-12-24T04:54:46.961Z,72917.75
2022-12-24T04:55:19.376Z,72909.78
2022-12-24T04:55:54.236Z,72911.75
2022-12-24T04:56:28.909Z,72911.75
2022-12-24T04:57:01.290Z,72909.78
2022-12-24T04:57:38.005Z,72911.75
2022-12-24T04:58:10.236Z,72917.75
2022-12-24T04:58:42.672Z,72915.75
2022-12-24T04:59:17.511Z,72913.75
2022-12-24T04:59:49.744Z,72913.75
2022-12-24T05:00:22.234Z,72907.78
2022-12-24T05:00:57.293Z,72913.75
2022-12-24T05:01:31.465Z,72913.75
2022-12-24T05:02:04.020Z,72915.75
2022-12-24T05:02:41.639Z,72913.75
2022-12-24T05:03:14.081Z,72915.75
2022-12-24T05:03:46.725Z,72921.75
2022-12-24T05:04:21.561Z,72929.72
2022-12-24T05:04:53.812Z,72929.72
2022-12-24T05:05:26.064Z,72933.72
2022-12-24T05:06:02.062Z,72925.75
2022-12-24T05:06:37.036Z,72925.75
2022-12-24T05:07:09.271Z,72917.75
2022-12-24T05:07:41.526Z,72911.75
2022-12-24T05:08:16.918Z,72917.75
2022-12-24T05:08:49.539Z,72911.75
2022-12-24T05:09:21.826Z,72917.75
2022-12-24T05:09:56.655Z,72919.75
2022-12-24T05:10:29.121Z,72921.75
2022-12-24T05:11:02.228Z,72925.75
2022-12-24T05:11:37.080Z,72925.75
2022-12-24T05:12:09.336Z,72921.75
2022-12-24T05:12:41.556Z,72915.75
2022-12-24T05:13:16.411Z,72913.75
2022-12-24T05:13:48.650Z,72909.78
2022-12-24T05:14:20.935Z,72913.75
2022-12-24T05:14:55.791Z,72909.78
2022-12-24T05:15:28.038Z,72907.78
2022-12-24T05:16:00.290Z,72907.78
2022-12-24T05:16:35.222Z,72909.78
2022-12-24T05:17:07.574Z,72909.78
2022-12-24T05:17:42.423Z,72909.78
2022-12-24T05:18:17.272Z,72911.75
2022-12-24T05:18:49.565Z,72905.78
2022-12-24T05:19:21.992Z,72909.78
2022-12-24T05:19:56.827Z,72909.78
2022-12-24T05:20:29.074Z,72905.78
2022-12-24T05:21:01.292Z,72909.78
2022-12-24T05:21:36.157Z,72913.75
2022-12-24T05:22:23.405Z,72905.78
2022-12-24T05:23:10.634Z,72913.75
2022-12-24T05:23:58.318Z,72917.75
2022-12-24T05:24:45.732Z,72917.75
2022-12-24T05:25:33.116Z,72921.75
2022-12-24T05:26:20.948Z,72921.75
2022-12-24T05:26:57.986Z,72921.75
2022-12-24T05:27:30.276Z,72923.75
2022-12-24T05:28:02.535Z,72921.75
2022-12-24T05:28:34.791Z,72925.75
2022-12-24T05:29:12.218Z,72917.75
2022-12-24T05:29:44.489Z,72929.72
2022-12-24T05:30:16.906Z,72925.75
2022-12-24T05:30:51.865Z,72925.75
2022-12-24T05:31:25.494Z,72927.72
2022-12-24T05:32:00.460Z,72925.75
2022-12-24T05:32:32.779Z,72923.75
2022-12-24T05:33:07.711Z,72921.75
2022-12-24T05:33:39.973Z,72919.75
2022-12-24T05:34:15.351Z,72917.75
2022-12-24T05:34:47.579Z,72925.75
2022-12-24T05:35:19.835Z,72923.75
2022-12-24T05:35:54.958Z,72927.72
2022-12-24T05:36:27.483Z,72931.72
2022-12-24T05:36:59.743Z,72937.72
2022-12-24T05:37:34.590Z,72937.72
2022-12-24T05:38:06.820Z,72941.72
2022-12-24T05:38:39.219Z,72937.72
2022-12-24T05:39:16.651Z,72941.72
2022-12-24T05:39:49.028Z,72941.72
2022-12-24T05:40:21.277Z,72941.72
2022-12-24T05:40:53.507Z,72937.72
2022-12-24T05:41:28.557Z,72941.72
2022-12-24T05:42:00.781Z,72941.72
2022-12-24T05:42:33.012Z,72941.72
2022-12-24T05:43:07.909Z,72937.72
2022-12-24T05:43:40.136Z,72933.72
2022-12-24T05:44:12.400Z,72935.72
2022-12-24T05:44:47.244Z,72933.72
2022-12-24T05:45:19.479Z,72933.72
2022-12-24T05:45:51.745Z,72941.72
2022-12-24T05:46:27.339Z,72939.72
2022-12-24T05:46:59.642Z,72939.72
2022-12-24T05:47:31.878Z,72945.69
2022-12-24T05:48:08.264Z,72943.69
2022-12-24T05:48:43.133Z,72945.69
2022-12-24T05:49:15.401Z,72955.69
2022-12-24T05:49:50.224Z,72949.69
2022-12-24T05:50:22.476Z,72957.69
2022-12-24T05:51:11.656Z,72953.69
2022-12-24T05:51:46.543Z,72953.69
2022-12-24T05:52:18.785Z,72957.69
2022-12-24T05:52:51.003Z,72959.66
2022-12-24T05:53:25.876Z,72957.69
2022-12-24T05:53:58.129Z,72957.69
2022-12-24T05:54:33.185Z,72953.69
2022-12-24T05:55:06.566Z,72953.69
2022-12-24T05:55:38.789Z,72955.69
2022-12-24T05:56:16.453Z,72949.69
2022-12-24T05:56:48.718Z,72961.66
2022-12-24T05:57:20.969Z,72957.69
2022-12-24T05:57:55.793Z,72957.69
2022-12-24T05:58:28.060Z,72961.66
2022-12-24T05:59:00.398Z,72961.66
2022-12-24T05:59:32.661Z,72961.66
2022-12-24T06:00:09.209Z,72963.66
2022-12-24T06:00:44.546Z,72969.66
2022-12-24T06:01:19.730Z,72971.66
2022-12-24T06:01:52.090Z,72971.66
2022-12-24T06:02:24.459Z,72977.63
2022-12-24T06:02:56.793Z,72969.66
2022-12-24T06:03:32.268Z,72973.63
2022-12-24T06:04:07.232Z,72969.66
2022-12-24T06:04:39.662Z,72969.66
2022-12-24T06:05:14.732Z,72967.66
2022-12-24T06:05:47.072Z,72969.66
2022-12-24T06:06:21.244Z,72967.66
2022-12-24T06:06:56.175Z,72965.66
2022-12-24T06:07:28.399Z,72965.66
2022-12-24T06:08:00.631Z,72961.66
2022-12-24T06:08:33.934Z,72963.66
2022-12-24T06:09:08.909Z,72957.69
2022-12-24T06:09:41.164Z,72959.66
2022-12-24T06:10:13.395Z,72957.69
2022-12-24T06:10:48.209Z,72965.66
2022-12-24T06:11:21.896Z,72957.69
2022-12-24T06:11:54.147Z,72957.69
2022-12-24T06:12:28.964Z,72963.66
2022-12-24T06:13:01.194Z,72965.66
2022-12-24T06:13:34.872Z,72961.66
2022-12-24T06:14:09.947Z,72967.66
2022-12-24T06:14:42.174Z,72965.66
2022-12-24T06:15:17.592Z,72963.66
2022-12-24T06:15:55.414Z,72961.66
2022-12-24T06:16:30.402Z,72957.69
2022-12-24T06:17:02.735Z,72957.69
2022-12-24T06:17:35.096Z,72959.66
2022-12-24T06:18:09.917Z,72957.69
2022-12-24T06:18:42.798Z,72957.69
2022-12-24T06:19:17.648Z,72955.69
2022-12-24T06:19:52.519Z,72953.69
2022-12-24T06:20:24.810Z,72955.69
2022-12-24T06:20:57.925Z,72957.69
2022-12-24T06:21:32.755Z,72957.69
2022-12-24T06:22:04.998Z,72957.69
2022-12-24T06:22:37.456Z,72961.66
2022-12-24T06:23:12.317Z,72959.66
2022-12-24T06:23:45.505Z,72963.66
2022-12-24T06:24:17.741Z,72961.66
2022-12-24T06:24:52.612Z,72959.66
2022-12-24T06:25:24.869Z,72953.69
2022-12-24T06:25:58.357Z,72957.69
2022-12-24T06:26:33.221Z,72961.66
2022-12-24T06:27:05.466Z,72957.69
2022-12-24T06:27:37.701Z,72959.66
2022-12-24T06:28:09.976Z,72965.66
2022-12-24T06:28:46.307Z,72967.66
2022-12-24T06:29:18.558Z,72969.66
2022-12-24T06:29:50.806Z,72969.66
2022-12-24T06:30:25.684Z,72969.66
2022-12-24T06:31:02.604Z,72969.66
2022-12-24T06:31:35.750Z,72973.63
2022-12-24T06:32:10.623Z,72969.66
2022-12-24T06:32:42.842Z,72977.63
2022-12-24T06:33:15.382Z,72975.63
2022-12-24T06:33:50.375Z,72973.63
2022-12-24T06:34:25.253Z,72973.63
2022-12-24T06:34:57.480Z,72971.66
2022-12-24T06:35:34.062Z,72973.63
2022-12-24T06:36:13.238Z,72977.63
2022-12-24T06:36:49.095Z,72975.63
2022-12-24T06:37:23.919Z,72973.63
2022-12-24T06:37:56.148Z,72963.66
2022-12-24T06:38:30.674Z,72971.66
2022-12-24T06:39:02.904Z,72969.66
2022-12-24T06:39:37.795Z,72983.63
2022-12-24T06:40:10.815Z,72979.63
2022-12-24T06:40:45.114Z,72977.63
2022-12-24T06:41:20.484Z,72981.63
2022-12-24T06:41:52.699Z,72981.63
2022-12-24T06:42:24.919Z,72985.63
2022-12-24T06:42:59.821Z,72981.63
2022-12-24T06:43:32.107Z,72977.63
2022-12-24T06:44:04.885Z,72979.63
2022-12-24T06:44:39.703Z,72981.63
2022-12-24T06:45:12.328Z,72979.63
2022-12-24T06:45:46.472Z,72981.63
2022-12-24T06:46:22.114Z,72987.63
2022-12-24T06:46:54.475Z,72979.63
2022-12-24T06:47:26.767Z,72981.63
2022-12-24T06:48:01.623Z,72977.63
2022-12-24T06:48:33.862Z,72985.63
2022-12-24T06:49:06.157Z,72981.63
2022-12-24T06:49:43.605Z,72981.63
2022-12-24T06:50:16.022Z,72977.63
2022-12-24T06:50:48.262Z,72973.63